Time;durP1;ratioP1;P1;durP2;ratioP2;P2;SDS_P1;SDS_P2;PMS_P1;PMS_P2;Temp;Humidity;BMP_temperature;BMP_pressure;BME280_temperature;BME280_humidity;BME280_pressure;Samples;Min_cycle;Max_cycle;Signal;HPM_P1;HPM_P2
2021/12/08 00:00:37;;;;;;;71.47;51.45;;;0.90;99.90;;;;;;5055266;28;20381;-84
2021/12/08 00:03:05;;;;;;;72.10;50.63;;;0.90;99.90;;;;;;5057992;28;20410;-84
2021/12/08 00:05:31;;;;;;;70.40;49.95;;;0.90;99.90;;;;;;5055362;28;20395;-84
2021/12/08 00:07:59;;;;;;;73.07;51.53;;;0.90;99.90;;;;;;5066188;28;20736;-84
2021/12/08 00:13:03;;;;;;;69.63;49.65;;;0.90;99.90;;;;;;5046870;28;20463;-84
2021/12/08 00:15:35;;;;;;;70.40;51.22;;;0.90;99.90;;;;;;5045455;28;20481;-83
2021/12/08 00:18:01;;;;;;;70.72;50.65;;;0.90;99.90;;;;;;5048080;28;20951;-85
2021/12/08 00:20:30;;;;;;;66.63;49.97;;;0.90;99.90;;;;;;5056119;28;20398;-83
2021/12/08 00:22:56;;;;;;;69.28;50.97;;;0.90;99.90;;;;;;5066211;28;20448;-85
2021/12/08 00:25:22;;;;;;;68.53;49.30;;;0.90;99.90;;;;;;5067014;28;20902;-83
2021/12/08 00:27:47;;;;;;;71.03;51.25;;;0.90;99.90;;;;;;5068130;28;20370;-84
2021/12/08 00:30:14;;;;;;;70.70;50.60;;;0.80;99.90;;;;;;5057475;28;20387;-84
2021/12/08 00:32:40;;;;;;;71.25;51.33;;;0.80;99.90;;;;;;5046994;28;20390;-83
2021/12/08 00:35:06;;;;;;;68.75;49.88;;;0.70;99.90;;;;;;5047845;28;20380;-85
2021/12/08 00:37:32;;;;;;;67.50;49.80;;;0.70;99.90;;;;;;5050085;28;20882;-82
2021/12/08 00:39:59;;;;;;;72.27;52.10;;;0.70;99.90;;;;;;5058640;28;20400;-83
2021/12/08 00:42:25;;;;;;;68.57;49.55;;;0.70;99.90;;;;;;5061065;28;20893;-85
2021/12/08 00:44:50;;;;;;;68.80;49.80;;;0.70;99.90;;;;;;5052197;28;20429;-84
2021/12/08 00:47:16;;;;;;;69.67;50.30;;;0.70;99.90;;;;;;5051596;28;20483;-84
2021/12/08 00:49:44;;;;;;;68.67;50.67;;;0.80;99.90;;;;;;5052625;28;20382;-83
2021/12/08 00:52:10;;;;;;;67.80;49.80;;;0.80;99.90;;;;;;5049740;28;20825;-84
2021/12/08 00:54:36;;;;;;;71.25;50.97;;;0.70;99.90;;;;;;5051255;28;20499;-84
2021/12/08 00:57:02;;;;;;;71.47;51.53;;;0.70;99.90;;;;;;5067233;28;20814;-83
2021/12/08 00:59:28;;;;;;;68.32;49.47;;;0.70;99.90;;;;;;5065199;28;20385;-83
2021/12/08 01:01:53;;;;;;;72.50;50.53;;;0.70;99.90;;;;;;5069745;28;20463;-83
2021/12/08 01:04:19;;;;;;;69.05;50.50;;;0.70;99.90;;;;;;5051761;28;20893;-84
2021/12/08 01:06:45;;;;;;;67.13;50.15;;;0.80;99.90;;;;;;5052368;28;20413;-84
2021/12/08 01:09:16;;;;;;;66.13;49.53;;;0.80;99.90;;;;;;5054093;28;20398;-86
2021/12/08 01:11:42;;;;;;;64.30;47.53;;;0.80;99.90;;;;;;5060336;28;20519;-84
2021/12/08 01:14:08;;;;;;;67.57;49.33;;;0.80;99.90;;;;;;5056923;28;20949;-83
2021/12/08 01:16:34;;;;;;;65.18;48.72;;;0.90;99.90;;;;;;5070735;28;20458;-84
2021/12/08 01:18:59;;;;;;;66.43;48.97;;;0.90;99.90;;;;;;5069339;28;20400;-83
2021/12/08 01:21:25;;;;;;;65.57;47.47;;;0.90;99.90;;;;;;5069074;28;21046;-85
2021/12/08 01:23:50;;;;;;;64.65;47.75;;;0.90;99.90;;;;;;5055508;28;20792;-84
2021/12/08 01:26:17;;;;;;;64.97;47.10;;;1.00;99.90;;;;;;5050690;28;21133;-84
2021/12/08 01:28:43;;;;;;;62.65;47.63;;;1.00;99.90;;;;;;5049699;28;20749;-84
2021/12/08 01:31:09;;;;;;;67.70;49.47;;;0.90;99.90;;;;;;5050395;28;20913;-84
2021/12/08 01:33:36;;;;;;;61.47;47.47;;;0.90;99.90;;;;;;5051674;28;20376;-83
2021/12/08 01:36:03;;;;;;;64.57;48.08;;;1.00;99.90;;;;;;5065294;28;20448;-84
2021/12/08 01:38:30;;;;;;;64.60;47.23;;;1.00;99.90;;;;;;5059390;28;20475;-83
2021/12/08 01:40:55;;;;;;;61.17;47.60;;;1.00;99.90;;;;;;5050667;28;20897;-83
2021/12/08 01:43:28;;;;;;;62.80;47.40;;;1.00;99.90;;;;;;5049800;28;20440;-84
2021/12/08 01:46:06;;;;;;;65.25;47.40;;;0.90;99.90;;;;;;5055224;28;20530;-83
2021/12/08 01:48:35;;;;;;;65.10;46.20;;;1.00;99.90;;;;;;5054110;28;20956;-82
2021/12/08 01:51:09;;;;;;;64.90;46.83;;;1.00;99.90;;;;;;5068781;28;20394;-84
2021/12/08 01:53:35;;;;;;;63.72;46.67;;;0.90;99.90;;;;;;5068370;28;21162;-83
2021/12/08 01:56:00;;;;;;;64.00;47.07;;;0.90;99.90;;;;;;5053702;28;20391;-84
2021/12/08 01:58:28;;;;;;;63.30;46.13;;;0.90;99.90;;;;;;5048795;28;20735;-84
2021/12/08 02:01:00;;;;;;;60.23;46.37;;;0.90;99.90;;;;;;5050256;28;20376;-86
2021/12/08 02:03:27;;;;;;;60.97;46.53;;;0.80;99.90;;;;;;5049795;28;20899;-82
2021/12/08 02:05:53;;;;;;;63.20;46.28;;;0.80;99.90;;;;;;5061457;28;20535;-86
2021/12/08 02:08:20;;;;;;;63.28;46.72;;;0.90;99.90;;;;;;5055818;28;20391;-84
2021/12/08 02:10:46;;;;;;;61.55;45.97;;;0.90;99.90;;;;;;5049798;28;20919;-84
2021/12/08 02:13:13;;;;;;;61.65;45.72;;;0.80;99.90;;;;;;5048683;28;20461;-85
2021/12/08 02:15:39;;;;;;;61.37;47.03;;;0.80;99.90;;;;;;5048637;28;20384;-84
2021/12/08 02:18:08;;;;;;;63.47;47.55;;;0.80;99.90;;;;;;5050091;28;20380;-84
2021/12/08 02:20:34;;;;;;;63.67;46.97;;;0.80;99.90;;;;;;5050205;28;20824;-84
2021/12/08 02:23:00;;;;;;;60.28;45.30;;;0.80;99.90;;;;;;5055813;28;20868;-85
2021/12/08 02:25:27;;;;;;;61.10;46.13;;;0.90;99.90;;;;;;5057553;28;20414;-84
2021/12/08 02:27:56;;;;;;;63.55;46.70;;;0.80;99.90;;;;;;5048402;28;20388;-84
2021/12/08 02:47:04;;;;;;;63.33;46.90;;;0.80;99.90;;;;;;5066765;28;20392;-83
2021/12/08 02:49:31;;;;;;;61.15;44.28;;;0.80;99.90;;;;;;5067690;28;20390;-83
2021/12/08 02:51:57;;;;;;;56.47;43.03;;;0.90;99.90;;;;;;5068539;28;20418;-85
2021/12/08 02:54:23;;;;;;;60.70;44.85;;;0.90;99.90;;;;;;5066170;28;20405;-83
2021/12/08 02:56:54;;;;;;;59.95;45.25;;;0.90;99.90;;;;;;5048120;28;20399;-83
2021/12/08 02:59:19;;;;;;;58.95;44.50;;;0.90;99.90;;;;;;5049006;28;20388;-84
2021/12/08 03:01:45;;;;;;;60.73;44.30;;;0.90;99.90;;;;;;5047659;28;20534;-82
2021/12/08 03:04:11;;;;;;;58.57;43.30;;;0.90;99.90;;;;;;5048136;28;20826;-84
2021/12/08 03:06:37;;;;;;;58.60;43.33;;;0.80;99.90;;;;;;5059170;28;20420;-85
2021/12/08 03:09:06;;;;;;;57.28;43.70;;;0.80;99.90;;;;;;5048474;28;20388;-85
2021/12/08 03:11:33;;;;;;;57.87;44.50;;;0.80;99.90;;;;;;5056284;28;20390;-83
2021/12/08 03:14:09;;;;;;;57.42;43.90;;;0.80;99.90;;;;;;5056312;28;20813;-84
2021/12/08 03:16:37;;;;;;;57.63;41.63;;;0.80;99.90;;;;;;5049828;28;20481;-83
2021/12/08 03:19:03;;;;;;;56.00;42.67;;;0.80;99.90;;;;;;5049937;28;20928;-83
2021/12/08 03:21:31;;;;;;;57.15;43.75;;;0.80;99.90;;;;;;5048271;28;20383;-83
2021/12/08 03:24:13;;;;;;;55.90;42.30;;;0.80;99.90;;;;;;5049753;28;20476;-83
2021/12/08 03:26:50;;;;;;;55.78;42.08;;;0.80;99.90;;;;;;5063703;28;20894;-83
2021/12/08 03:29:23;;;;;;;54.83;41.87;;;0.80;99.90;;;;;;5065403;28;20422;-83
2021/12/08 03:31:52;;;;;;;52.97;40.28;;;0.80;99.90;;;;;;5068407;28;20432;-83
2021/12/08 03:34:20;;;;;;;56.00;42.33;;;0.80;99.90;;;;;;5065237;28;20759;-84
2021/12/08 03:36:46;;;;;;;55.50;41.45;;;0.80;99.90;;;;;;5050828;28;20399;-82
2021/12/08 03:39:12;;;;;;;56.63;42.07;;;0.70;99.90;;;;;;5048999;28;20546;-82
2021/12/08 03:41:37;;;;;;;56.17;42.07;;;0.70;99.90;;;;;;5048085;28;20392;-82
2021/12/08 03:44:04;;;;;;;57.33;41.97;;;0.70;99.90;;;;;;5057061;28;20381;-84
2021/12/08 03:46:35;;;;;;;53.92;41.42;;;0.70;99.90;;;;;;5056682;28;20398;-82
2021/12/08 03:49:01;;;;;;;56.42;41.10;;;0.70;99.90;;;;;;5049531;28;20407;-83
2021/12/08 03:51:27;;;;;;;55.97;42.57;;;0.70;99.90;;;;;;5047061;28;20383;-82
2021/12/08 03:53:52;;;;;;;55.50;42.40;;;0.70;99.90;;;;;;5048501;28;20723;-83
2021/12/08 03:56:18;;;;;;;55.17;41.70;;;0.70;99.90;;;;;;5061156;28;20440;-82
2021/12/08 03:58:44;;;;;;;55.55;41.65;;;0.70;99.90;;;;;;5067361;28;20386;-82
2021/12/08 04:01:09;;;;;;;55.33;42.53;;;0.70;99.90;;;;;;5061560;28;20419;-81
2021/12/08 04:03:36;;;;;;;58.10;43.05;;;0.70;99.90;;;;;;5048658;28;20415;-82
2021/12/08 04:06:13;;;;;;;55.63;42.57;;;0.70;99.90;;;;;;5057346;28;20740;-83
2021/12/08 04:08:43;;;;;;;53.80;41.72;;;0.70;99.90;;;;;;5063849;28;20497;-83
2021/12/08 04:11:10;;;;;;;53.35;40.55;;;0.70;99.90;;;;;;5047943;28;20458;-82
2021/12/08 04:13:45;;;;;;;52.90;41.00;;;0.70;99.90;;;;;;5052409;28;20535;-81
2021/12/08 04:16:12;;;;;;;55.78;42.33;;;0.70;99.90;;;;;;5048318;28;20384;-82
2021/12/08 04:18:39;;;;;;;54.80;41.17;;;0.70;99.90;;;;;;5050806;28;20461;-83
2021/12/08 04:21:06;;;;;;;53.42;41.70;;;0.70;99.90;;;;;;5050957;28;20912;-85
2021/12/08 04:23:36;;;;;;;51.80;40.13;;;0.80;99.90;;;;;;5055615;28;20459;-84
2021/12/08 04:26:06;;;;;;;53.37;39.73;;;0.80;99.90;;;;;;5067879;28;20889;-81
2021/12/08 04:28:34;;;;;;;50.67;39.63;;;0.80;99.90;;;;;;5050681;28;20419;-81
2021/12/08 04:31:16;;;;;;;53.25;40.72;;;0.80;99.90;;;;;;5052004;28;20486;-84
2021/12/08 04:33:42;;;;;;;53.17;40.97;;;0.80;99.90;;;;;;5051399;28;20384;-85
2021/12/08 04:36:12;;;;;;;54.28;42.30;;;0.70;99.90;;;;;;5050615;28;20402;-83
2021/12/08 04:38:42;;;;;;;55.20;40.67;;;0.80;99.90;;;;;;5050506;28;20406;-82
2021/12/08 04:41:13;;;;;;;53.15;40.58;;;0.80;99.90;;;;;;5050290;28;20403;-83
2021/12/08 04:52:21;;;;;;;53.63;41.00;;;0.80;99.90;;;;;;5066753;28;20473;-81
2021/12/08 05:09:08;;;;;;;50.38;39.15;;;0.80;99.90;;;;;;5071297;28;20774;-82
2021/12/08 05:11:37;;;;;;;50.67;39.83;;;0.80;99.90;;;;;;5069520;28;20749;-83
2021/12/08 05:14:18;;;;;;;52.37;40.57;;;0.70;99.90;;;;;;5067870;28;20827;-84
2021/12/08 05:16:46;;;;;;;54.42;40.45;;;0.80;99.90;;;;;;5055582;28;20423;-83
2021/12/08 05:19:16;;;;;;;51.03;41.08;;;0.80;99.90;;;;;;5050571;28;20479;-82
2021/12/08 05:21:50;;;;;;;49.47;39.42;;;0.80;99.90;;;;;;5050939;28;20445;-84
2021/12/08 05:24:21;;;;;;;49.67;39.72;;;0.90;99.90;;;;;;5062607;28;20714;-84
2021/12/08 05:26:58;;;;;;;50.78;39.50;;;0.90;99.90;;;;;;5070792;28;20959;-83
2021/12/08 05:29:40;;;;;;;49.25;39.38;;;0.90;99.90;;;;;;5068896;28;20921;-83
2021/12/08 05:32:07;;;;;;;49.83;38.83;;;0.90;99.90;;;;;;5052017;28;20479;-84
2021/12/08 05:34:34;;;;;;;48.13;38.60;;;0.90;99.90;;;;;;5051942;28;20379;-83
2021/12/08 05:37:01;;;;;;;50.53;39.92;;;0.80;99.90;;;;;;5049643;28;20423;-83
2021/12/08 05:39:29;;;;;;;48.90;38.90;;;0.80;99.90;;;;;;5048893;28;20411;-83
2021/12/08 05:42:00;;;;;;;47.53;38.25;;;0.90;99.90;;;;;;5050144;28;20403;-83
2021/12/08 05:44:26;;;;;;;49.60;39.07;;;0.80;99.90;;;;;;5060470;28;20386;-84
2021/12/08 05:46:55;;;;;;;50.30;39.80;;;0.90;99.90;;;;;;5066880;28;20385;-81
2021/12/08 05:49:22;;;;;;;47.47;38.80;;;0.80;99.90;;;;;;5069857;28;20402;-83
2021/12/08 05:51:51;;;;;;;50.05;39.08;;;0.80;99.90;;;;;;5061414;28;20387;-84
2021/12/08 05:54:22;;;;;;;49.70;39.28;;;0.80;99.90;;;;;;5055931;28;20384;-85
2021/12/08 05:56:49;;;;;;;48.22;39.50;;;0.70;99.90;;;;;;5050394;28;20441;-81
2021/12/08 05:59:16;;;;;;;51.40;40.17;;;0.70;99.90;;;;;;5048702;28;20443;-84
2021/12/08 06:02:01;;;;;;;52.80;40.63;;;0.70;99.90;;;;;;5054189;28;20386;-82
2021/12/08 06:04:29;;;;;;;49.78;39.45;;;0.80;99.90;;;;;;5059128;28;20441;-83
2021/12/08 06:06:56;;;;;;;48.40;39.30;;;0.70;99.90;;;;;;5061263;28;20376;-84
2021/12/08 06:09:25;;;;;;;51.83;39.97;;;0.70;99.90;;;;;;5049963;28;20429;-83
2021/12/08 06:11:51;;;;;;;48.27;38.50;;;0.70;99.90;;;;;;5061170;28;20740;-84
2021/12/08 06:14:19;;;;;;;50.33;39.45;;;0.70;99.90;;;;;;5068571;28;20387;-85
2021/12/08 06:16:48;;;;;;;49.97;39.80;;;0.80;99.90;;;;;;5063236;28;20386;-82
2021/12/08 06:19:15;;;;;;;52.17;40.43;;;0.80;99.90;;;;;;5048279;28;20466;-84
2021/12/08 06:21:41;;;;;;;53.00;40.92;;;0.80;99.90;;;;;;5049272;28;20414;-83
2021/12/08 06:24:11;;;;;;;49.50;39.13;;;0.70;99.90;;;;;;5048457;28;20376;-84
2021/12/08 06:26:37;;;;;;;51.08;40.13;;;0.80;99.90;;;;;;5049391;28;20893;-83
2021/12/08 06:29:06;;;;;;;49.13;39.55;;;0.80;99.90;;;;;;5049866;28;20459;-85
2021/12/08 06:31:34;;;;;;;54.97;39.97;;;0.80;99.90;;;;;;5049196;28;20853;-85
2021/12/08 06:34:01;;;;;;;50.27;39.27;;;0.70;99.90;;;;;;5048403;28;20422;-84
2021/12/08 06:36:49;;;;;;;49.17;40.33;;;0.70;99.90;;;;;;5047861;28;20406;-85
2021/12/08 06:39:20;;;;;;;49.87;38.50;;;0.70;99.90;;;;;;5047073;28;20514;-83
2021/12/08 06:41:52;;;;;;;46.42;38.08;;;0.70;99.90;;;;;;5047273;28;20842;-86
2021/12/08 06:44:24;;;;;;;48.10;37.83;;;0.70;99.90;;;;;;5048375;28;20376;-82
2021/12/08 06:46:50;;;;;;;48.58;38.42;;;0.70;99.90;;;;;;5049497;28;20375;-84
2021/12/08 06:49:19;;;;;;;48.50;38.28;;;0.70;99.90;;;;;;5048657;28;20804;-84
2021/12/08 06:51:50;;;;;;;45.20;36.85;;;0.70;99.90;;;;;;5048821;28;20479;-85
2021/12/08 06:54:23;;;;;;;47.55;37.58;;;0.70;99.90;;;;;;5049235;28;20375;-83
2021/12/08 06:56:56;;;;;;;48.78;36.63;;;0.70;99.90;;;;;;5049200;28;20390;-83
2021/12/08 06:59:33;;;;;;;47.40;37.35;;;0.70;99.90;;;;;;5048543;28;20423;-82
2021/12/08 07:02:10;;;;;;;47.60;36.30;;;0.60;99.90;;;;;;5048915;28;20820;-85
2021/12/08 07:05:10;;;;;;;47.38;36.58;;;0.70;99.90;;;;;;5047715;28;20478;-84
2021/12/08 07:07:38;;;;;;;46.63;36.92;;;0.70;99.90;;;;;;5047639;28;20449;-82
2021/12/08 07:10:19;;;;;;;49.95;38.03;;;0.70;99.90;;;;;;5047177;28;20392;-82
2021/12/08 07:12:51;;;;;;;46.47;36.47;;;0.70;99.90;;;;;;5046935;28;20388;-82
2021/12/08 07:15:46;;;;;;;48.28;37.63;;;0.70;99.90;;;;;;5046810;28;21041;-85
2021/12/08 07:18:16;;;;;;;50.35;36.58;;;0.60;99.90;;;;;;5045935;28;20948;-83
2021/12/08 07:20:47;;;;;;;46.10;36.25;;;0.70;99.90;;;;;;5045564;28;20875;-83
2021/12/08 07:23:15;;;;;;;49.45;37.97;;;0.70;99.90;;;;;;5047820;28;20404;-83
2021/12/08 07:25:43;;;;;;;50.15;37.17;;;0.70;99.90;;;;;;5047843;28;20850;-82
2021/12/08 07:28:10;;;;;;;49.03;37.40;;;0.70;99.90;;;;;;5048965;28;20404;-83
2021/12/08 07:30:43;;;;;;;50.65;37.72;;;0.80;99.90;;;;;;5047890;28;20386;-83
2021/12/08 07:33:09;;;;;;;49.80;37.65;;;0.80;99.90;;;;;;5047062;28;20498;-84
2021/12/08 07:35:42;;;;;;;49.78;37.75;;;0.80;99.90;;;;;;5047505;28;20458;-82
2021/12/08 07:38:10;;;;;;;51.20;38.30;;;0.80;99.90;;;;;;5047724;28;20526;-84
2021/12/08 07:40:44;;;;;;;52.08;39.03;;;0.80;99.90;;;;;;5048365;28;20367;-83
2021/12/08 07:43:14;;;;;;;50.53;37.42;;;0.70;99.90;;;;;;5046412;28;20404;-83
2021/12/08 07:45:51;;;;;;;51.38;38.45;;;0.80;99.90;;;;;;5057438;28;20365;-83
2021/12/08 07:48:23;;;;;;;53.50;38.70;;;0.80;99.90;;;;;;5066609;28;20390;-84
2021/12/08 07:51:02;;;;;;;52.83;38.58;;;0.70;99.90;;;;;;5068684;28;20382;-86
2021/12/08 07:53:29;;;;;;;52.10;38.08;;;0.70;99.90;;;;;;5069451;28;20378;-85
2021/12/08 07:56:02;;;;;;;56.33;39.28;;;0.80;99.90;;;;;;5070849;28;20401;-84
2021/12/08 07:58:29;;;;;;;57.37;40.63;;;0.80;99.90;;;;;;5073116;28;20872;-86
2021/12/08 08:01:05;;;;;;;54.65;39.15;;;0.90;99.90;;;;;;5058941;28;20940;-82
2021/12/08 08:03:32;;;;;;;52.30;38.88;;;0.90;99.90;;;;;;5052337;28;20414;-86
2021/12/08 08:06:01;;;;;;;55.88;39.67;;;0.90;99.90;;;;;;5059184;28;20385;-83
2021/12/08 08:08:30;;;;;;;57.42;40.55;;;0.90;99.90;;;;;;5072426;28;20386;-84
2021/12/08 08:11:01;;;;;;;54.28;39.17;;;0.90;99.90;;;;;;5071144;28;20480;-83
2021/12/08 08:13:27;;;;;;;56.93;40.07;;;0.90;99.90;;;;;;5071068;28;20863;-83
2021/12/08 08:16:04;;;;;;;58.10;40.92;;;0.90;99.90;;;;;;5071510;28;20397;-84
2021/12/08 08:18:30;;;;;;;56.65;40.28;;;0.90;99.90;;;;;;5062521;28;20748;-82
2021/12/08 08:21:00;;;;;;;57.92;39.90;;;0.90;99.90;;;;;;5069880;28;20428;-86
2021/12/08 08:23:28;;;;;;;57.85;39.67;;;1.00;99.90;;;;;;5071246;28;20393;-85
2021/12/08 08:25:55;;;;;;;57.08;40.35;;;1.00;99.90;;;;;;5067312;28;20388;-85
2021/12/08 08:28:22;;;;;;;55.08;39.15;;;1.00;99.90;;;;;;5072169;28;20384;-84
2021/12/08 08:30:55;;;;;;;56.67;39.60;;;1.10;99.90;;;;;;5058200;28;20751;-84
2021/12/08 08:33:23;;;;;;;57.90;39.47;;;1.10;99.90;;;;;;5050717;28;20376;-83
2021/12/08 08:35:54;;;;;;;60.53;40.33;;;1.00;99.90;;;;;;5065381;28;20814;-83
2021/12/08 08:38:30;;;;;;;56.83;39.08;;;1.00;99.90;;;;;;5070432;28;20440;-83
2021/12/08 08:41:08;;;;;;;59.47;40.63;;;1.10;99.90;;;;;;5070131;28;20891;-83
2021/12/08 08:43:34;;;;;;;56.45;38.75;;;1.10;99.90;;;;;;5051779;28;20430;-85
2021/12/08 08:46:27;;;;;;;58.63;39.92;;;1.10;99.90;;;;;;5050856;28;20419;-85
2021/12/08 08:49:01;;;;;;;61.63;41.13;;;1.20;99.90;;;;;;5050014;28;20380;-82
2021/12/08 08:51:35;;;;;;;62.63;41.70;;;1.20;99.90;;;;;;5053982;28;20398;-83
2021/12/08 08:54:08;;;;;;;58.90;39.67;;;1.20;99.90;;;;;;5071202;28;20399;-84
2021/12/08 08:56:37;;;;;;;60.33;41.35;;;1.20;99.90;;;;;;5071470;28;20381;-83
2021/12/08 08:59:12;;;;;;;60.27;41.13;;;1.20;99.90;;;;;;5066684;28;20523;-83
2021/12/08 09:01:42;;;;;;;58.72;40.47;;;1.20;99.90;;;;;;5050341;28;20396;-83
2021/12/08 09:04:13;;;;;;;60.23;39.90;;;1.20;99.90;;;;;;5049362;28;20400;-85
2021/12/08 09:06:44;;;;;;;63.92;40.33;;;1.20;99.90;;;;;;5049771;28;20431;-82
2021/12/08 09:09:16;;;;;;;62.75;40.40;;;1.30;99.90;;;;;;5054496;28;20397;-81
2021/12/08 09:11:50;;;;;;;59.35;39.97;;;1.20;99.90;;;;;;5053378;28;20405;-84
2021/12/08 09:14:34;;;;;;;58.80;40.80;;;1.20;99.90;;;;;;5062859;28;20463;-84
2021/12/08 09:17:02;;;;;;;62.85;41.08;;;1.20;99.90;;;;;;5049582;28;20955;-84
2021/12/08 09:19:35;;;;;;;59.95;39.75;;;1.30;99.90;;;;;;5056293;28;20392;-83
2021/12/08 09:22:06;;;;;;;59.45;39.35;;;1.30;99.90;;;;;;5069674;28;21141;-82
2021/12/08 09:24:48;;;;;;;61.60;40.47;;;1.30;99.90;;;;;;5070578;28;20378;-81
2021/12/08 09:27:20;;;;;;;61.80;39.97;;;1.40;99.90;;;;;;5069241;28;20795;-82
2021/12/08 09:29:55;;;;;;;60.90;39.85;;;1.40;99.90;;;;;;5057154;28;20395;-81
2021/12/08 09:32:36;;;;;;;60.23;40.27;;;1.40;99.90;;;;;;5049661;28;20396;-84
2021/12/08 09:35:10;;;;;;;62.17;39.65;;;1.40;99.90;;;;;;5049676;28;20496;-81
2021/12/08 09:37:43;;;;;;;59.58;38.63;;;1.50;99.90;;;;;;5051179;28;20962;-83
2021/12/08 09:40:14;;;;;;;58.92;38.97;;;1.40;99.90;;;;;;5066136;28;20396;-84
2021/12/08 09:42:46;;;;;;;57.63;39.22;;;1.50;99.90;;;;;;5069307;28;20912;-82
2021/12/08 09:45:14;;;;;;;59.10;39.03;;;1.60;99.90;;;;;;5053959;28;20877;-84
2021/12/08 09:47:40;;;;;;;59.17;38.75;;;1.70;99.90;;;;;;5067074;28;20366;-82
2021/12/08 09:50:09;;;;;;;58.45;40.00;;;1.70;99.90;;;;;;5058843;28;20394;-82
2021/12/08 09:52:35;;;;;;;61.83;40.43;;;1.70;99.90;;;;;;5066863;28;20405;-84
2021/12/08 09:55:01;;;;;;;60.90;39.13;;;1.60;99.90;;;;;;5060951;28;20386;-83
2021/12/08 09:57:28;;;;;;;57.63;38.28;;;1.70;99.90;;;;;;5068328;28;20443;-82
2021/12/08 09:59:55;;;;;;;59.67;38.65;;;1.60;99.90;;;;;;5069914;28;20394;-83
2021/12/08 10:02:33;;;;;;;59.83;39.00;;;1.60;99.90;;;;;;5067698;28;20442;-81
2021/12/08 10:05:02;;;;;;;56.58;38.45;;;1.70;99.90;;;;;;5057826;28;20436;-83
2021/12/08 10:07:28;;;;;;;58.33;39.80;;;1.70;99.90;;;;;;5067819;28;20381;-84
2021/12/08 10:09:55;;;;;;;61.87;39.60;;;1.70;99.90;;;;;;5069007;28;20382;-82
2021/12/08 10:12:22;;;;;;;59.55;39.15;;;1.70;99.90;;;;;;5068862;28;20467;-82
2021/12/08 10:14:50;;;;;;;57.08;38.83;;;1.70;99.90;;;;;;5069302;28;20793;-82
2021/12/08 10:17:17;;;;;;;61.83;40.28;;;1.70;99.90;;;;;;5056861;28;20389;-83
2021/12/08 10:19:46;;;;;;;58.78;39.45;;;1.70;99.90;;;;;;5065700;28;20376;-82
2021/12/08 10:22:20;;;;;;;60.63;39.13;;;1.80;99.90;;;;;;5065748;28;20466;-82
2021/12/08 10:25:10;;;;;;;61.67;39.90;;;1.80;99.90;;;;;;5063048;28;20406;-85
2021/12/08 10:28:13;;;;;;;58.47;38.93;;;1.90;99.90;;;;;;5063910;28;20412;-82
2021/12/08 10:30:45;;;;;;;54.85;37.60;;;1.90;99.90;;;;;;5063979;28;20749;-82
2021/12/08 10:33:50;;;;;;;56.13;39.15;;;1.90;99.90;;;;;;5056848;28;20401;-83
2021/12/08 10:39:11;;;;;;;62.13;39.60;;;2.10;99.90;;;;;;5067041;28;20397;-82
2021/12/08 10:41:54;;;;;;;60.30;39.85;;;2.30;99.90;;;;;;5064755;28;20394;-85
2021/12/08 10:44:23;;;;;;;59.75;39.97;;;2.30;99.90;;;;;;5065417;28;20393;-84
2021/12/08 10:46:57;;;;;;;57.88;39.33;;;2.30;99.90;;;;;;5064339;28;20386;-83
2021/12/08 10:54:24;;;;;;;62.33;40.45;;;2.30;99.90;;;;;;5063777;28;20793;-84
2021/12/08 10:54:55;;;;;;;55.70;39.27;;;2.30;99.90;;;;;;5066630;28;20385;-83
2021/12/08 10:57:34;;;;;;;56.93;39.23;;;2.40;99.90;;;;;;5064401;28;20397;-82
2021/12/08 10:59:59;;;;;;;57.25;39.63;;;2.40;99.90;;;;;;5063944;28;21778;-83
2021/12/08 11:02:49;;;;;;;56.25;39.15;;;2.40;99.90;;;;;;5064402;28;20903;-84
2021/12/08 11:05:25;;;;;;;56.87;38.60;;;2.40;99.90;;;;;;5064296;28;20442;-82
2021/12/08 11:07:59;;;;;;;57.13;39.58;;;2.30;99.90;;;;;;5063960;28;20366;-85
2021/12/08 11:10:25;;;;;;;58.60;39.42;;;2.40;99.90;;;;;;5065125;28;20378;-84
2021/12/08 11:12:54;;;;;;;61.47;40.00;;;2.50;99.90;;;;;;5065549;28;20394;-85
2021/12/08 11:15:22;;;;;;;58.70;39.92;;;2.50;99.90;;;;;;5065337;28;20404;-83
2021/12/08 11:17:49;;;;;;;59.58;39.97;;;2.30;99.90;;;;;;5060741;28;20421;-83
2021/12/08 11:20:19;;;;;;;60.10;41.15;;;2.20;99.90;;;;;;5065092;28;20386;-83
2021/12/08 11:23:02;;;;;;;59.95;40.03;;;2.20;99.90;;;;;;5065888;28;20406;-82
2021/12/08 11:25:35;;;;;;;58.40;39.72;;;2.20;99.90;;;;;;5061958;28;20393;-84
2021/12/08 11:28:21;;;;;;;57.97;39.90;;;2.30;99.90;;;;;;5065350;28;20379;-84
2021/12/08 11:30:48;;;;;;;57.30;39.30;;;2.40;99.90;;;;;;5064526;28;20980;-84
2021/12/08 11:33:21;;;;;;;58.65;39.97;;;2.30;99.90;;;;;;5063125;28;20398;-82
2021/12/08 11:35:48;;;;;;;57.22;39.78;;;2.30;99.90;;;;;;5064944;28;20947;-84
2021/12/08 11:38:24;;;;;;;57.38;40.13;;;2.30;99.90;;;;;;5065760;28;20366;-84
2021/12/08 11:40:50;;;;;;;60.28;40.15;;;2.30;99.90;;;;;;5063741;28;20382;-82
2021/12/08 11:43:15;;;;;;;57.90;40.00;;;2.30;99.90;;;;;;5063931;28;20437;-84
2021/12/08 11:45:42;;;;;;;57.37;40.53;;;2.20;99.90;;;;;;5066188;28;20414;-83
2021/12/08 11:48:25;;;;;;;59.67;41.75;;;2.20;99.90;;;;;;5065567;28;20374;-82
2021/12/08 11:51:12;;;;;;;54.25;40.05;;;2.30;99.90;;;;;;5065579;28;20383;-82
2021/12/08 11:53:39;;;;;;;59.13;40.30;;;2.30;99.90;;;;;;5064366;28;20378;-84
2021/12/08 11:56:06;;;;;;;58.35;40.40;;;2.40;99.90;;;;;;5064057;28;20404;-82
2021/12/08 11:58:33;;;;;;;56.33;39.97;;;2.30;99.90;;;;;;5063770;28;20439;-83
2021/12/08 12:01:01;;;;;;;56.83;40.45;;;2.40;99.90;;;;;;5062899;28;20382;-84
2021/12/08 12:03:27;;;;;;;60.42;40.45;;;2.40;99.90;;;;;;5063775;28;20414;-84
2021/12/08 12:05:53;;;;;;;54.97;38.22;;;2.40;99.90;;;;;;5064752;28;20397;-82
2021/12/08 12:08:21;;;;;;;60.60;40.80;;;2.50;99.90;;;;;;5063716;28;20373;-83
2021/12/08 12:10:53;;;;;;;59.17;39.50;;;2.60;99.90;;;;;;5064491;28;20394;-82
2021/12/08 12:13:19;;;;;;;58.05;40.05;;;2.50;99.90;;;;;;5064323;28;20937;-82
2021/12/08 12:15:47;;;;;;;56.40;39.78;;;2.50;99.90;;;;;;5063876;28;20420;-83
2021/12/08 12:18:17;;;;;;;58.00;39.47;;;2.50;99.90;;;;;;5064770;28;20385;-84
2021/12/08 12:20:51;;;;;;;55.22;39.03;;;2.40;99.90;;;;;;5063391;28;20884;-83
2021/12/08 12:23:44;;;;;;;56.95;39.97;;;2.50;99.90;;;;;;5064711;28;20431;-84
2021/12/08 12:26:22;;;;;;;56.50;38.90;;;2.50;99.90;;;;;;5059943;28;20581;-83
2021/12/08 12:29:06;;;;;;;53.30;37.17;;;2.60;99.90;;;;;;5060307;28;20390;-82
2021/12/08 12:31:47;;;;;;;57.30;40.00;;;2.60;99.90;;;;;;5064027;28;20373;-82
2021/12/08 12:34:32;;;;;;;58.10;39.15;;;2.60;99.90;;;;;;5063208;28;20880;-84
2021/12/08 12:37:02;;;;;;;55.08;39.65;;;2.60;99.90;;;;;;5064193;28;20397;-81
2021/12/08 12:39:28;;;;;;;55.97;38.53;;;2.60;99.90;;;;;;5065071;28;20808;-83
2021/12/08 12:42:13;;;;;;;57.35;38.97;;;2.50;99.90;;;;;;5068122;28;20938;-84
2021/12/08 12:45:02;;;;;;;58.70;39.60;;;2.50;99.90;;;;;;5067894;28;20417;-81
2021/12/08 12:47:30;;;;;;;60.30;40.70;;;2.60;99.90;;;;;;5068622;28;20396;-84
2021/12/08 12:50:22;;;;;;;58.28;39.30;;;2.50;99.90;;;;;;5066834;28;20389;-85
2021/12/08 12:52:52;;;;;;;57.95;39.60;;;2.40;99.90;;;;;;5061109;28;20459;-84
2021/12/08 12:55:22;;;;;;;59.60;39.75;;;2.40;99.90;;;;;;5066667;28;20402;-83
2021/12/08 12:58:07;;;;;;;60.55;41.53;;;2.40;99.90;;;;;;5067155;28;20386;-82
2021/12/08 13:01:10;;;;;;;59.55;40.33;;;2.30;99.90;;;;;;5067178;28;20469;-84
2021/12/08 13:03:54;;;;;;;55.65;40.90;;;2.30;99.90;;;;;;5067448;28;20405;-83
2021/12/08 13:06:40;;;;;;;57.88;39.13;;;2.20;99.90;;;;;;5066828;28;20389;-82
2021/12/08 13:09:07;;;;;;;59.70;40.20;;;2.30;99.90;;;;;;5068566;28;20378;-84
2021/12/08 13:11:59;;;;;;;55.47;39.90;;;2.40;99.90;;;;;;5067862;28;20366;-85
2021/12/08 13:14:28;;;;;;;57.60;40.10;;;2.40;99.90;;;;;;5067531;28;20416;-83
2021/12/08 13:17:10;;;;;;;57.25;40.40;;;2.40;99.90;;;;;;5066006;28;20919;-84
2021/12/08 13:19:42;;;;;;;58.97;40.85;;;2.40;99.90;;;;;;5066663;28;21738;-85
2021/12/08 13:22:09;;;;;;;58.88;39.28;;;2.40;99.90;;;;;;5067352;28;20390;-83
2021/12/08 13:24:34;;;;;;;57.63;38.83;;;2.50;99.90;;;;;;5066795;28;20475;-83
2021/12/08 13:27:12;;;;;;;55.83;38.70;;;2.50;99.90;;;;;;5067617;28;20418;-83
2021/12/08 13:29:42;;;;;;;58.28;39.30;;;2.50;99.90;;;;;;5063618;28;20439;-85
2021/12/08 13:32:13;;;;;;;54.17;38.22;;;2.50;99.90;;;;;;5066752;28;20390;-84
2021/12/08 13:34:46;;;;;;;57.83;40.15;;;2.60;99.90;;;;;;5066210;28;20374;-83
2021/12/08 13:37:15;;;;;;;55.05;38.05;;;2.50;99.90;;;;;;5064017;28;20486;-84
2021/12/08 13:39:46;;;;;;;55.65;38.42;;;2.40;99.90;;;;;;5066438;28;20390;-84
2021/12/08 13:42:26;;;;;;;54.33;38.25;;;2.40;99.90;;;;;;5049012;28;20382;-83